createdAt,value
2022-10-03T00:00:25.582Z,66.43
2022-10-03T00:02:51.568Z,66.92
2022-10-03T00:05:18.281Z,67.49
2022-10-03T00:07:44.263Z,67.18
2022-10-03T00:10:10.643Z,67.17
2022-10-03T00:12:37.113Z,66.62
2022-10-03T00:15:03.711Z,66.54
2022-10-03T00:17:29.675Z,66.11
2022-10-03T00:19:55.595Z,66.07
2022-10-03T00:22:21.544Z,65.95
2022-10-03T00:24:47.753Z,65.54
2022-10-03T00:27:13.733Z,65.45
2022-10-03T00:29:39.659Z,65.56
2022-10-03T00:32:05.656Z,65.78
2022-10-03T00:34:31.593Z,65.79
2022-10-03T00:36:57.571Z,65.99
2022-10-03T00:39:23.831Z,65.97
2022-10-03T00:41:49.787Z,65.77
2022-10-03T00:44:17.583Z,65.54
2022-10-03T00:46:43.859Z,65.62
2022-10-03T00:49:10.175Z,65.88
2022-10-03T00:51:36.623Z,65.88
2022-10-03T00:54:03.033Z,65.75
2022-10-03T01:07:11.164Z,65.64
2022-10-03T02:58:21.137Z,67.79
2022-10-03T03:00:47.131Z,67.27
2022-10-03T03:03:13.139Z,67.42
2022-10-03T03:05:40.120Z,68.75
2022-10-03T03:08:06.093Z,69.36
2022-10-03T03:10:32.019Z,68.93
2022-10-03T03:12:58.841Z,68.77
2022-10-03T03:15:24.764Z,68.23
2022-10-03T03:17:50.739Z,67.87
2022-10-03T03:20:16.667Z,67.55
2022-10-03T03:22:42.649Z,67.83
2022-10-03T03:25:08.592Z,67.78
2022-10-03T03:27:34.519Z,67.48
2022-10-03T03:30:00.692Z,66.83
2022-10-03T03:32:26.637Z,66.88
2022-10-03T03:34:53.337Z,68.48
2022-10-03T03:37:19.313Z,68.49
2022-10-03T03:39:45.883Z,68.07
2022-10-03T03:42:11.891Z,68.11
2022-10-03T03:44:38.068Z,67.72
2022-10-03T03:47:04.027Z,67.37
2022-10-03T03:49:30.010Z,67.70
2022-10-03T03:51:56.949Z,67.02
2022-10-03T03:54:22.913Z,67.52
2022-10-03T03:56:48.854Z,67.39
2022-10-03T03:59:15.523Z,67.15
2022-10-03T04:01:41.962Z,67.50
2022-10-03T04:04:08.713Z,67.48
2022-10-03T04:06:34.660Z,67.37
2022-10-03T04:09:00.645Z,66.93
2022-10-03T04:11:27.246Z,67.39
2022-10-03T04:13:53.962Z,67.14
2022-10-03T04:16:19.995Z,67.50
2022-10-03T04:18:45.959Z,67.47
2022-10-03T04:21:14.594Z,67.80
2022-10-03T04:23:44.142Z,68.23
2022-10-03T04:26:10.908Z,67.71
2022-10-03T04:28:36.853Z,67.16
2022-10-03T04:31:02.810Z,67.24
2022-10-03T04:36:13.577Z,67.73
2022-10-03T04:38:39.569Z,67.12
2022-10-03T04:41:05.557Z,67.05
2022-10-03T04:43:31.505Z,66.87
2022-10-03T04:45:57.544Z,67.47
2022-10-03T04:48:23.560Z,67.02
2022-10-03T04:50:49.511Z,67.55
2022-10-03T04:53:16.186Z,68.13
2022-10-03T04:55:42.141Z,67.51
2022-10-03T04:58:08.110Z,67.73
2022-10-03T05:00:34.069Z,67.82
2022-10-03T05:03:00.019Z,67.39
2022-10-03T05:05:26.019Z,67.35
2022-10-03T05:07:51.951Z,67.50
2022-10-03T05:13:08.643Z,67.21
2022-10-03T05:15:35.268Z,67.58
2022-10-03T05:18:01.240Z,67.30
2022-10-03T05:20:27.177Z,67.67
2022-10-03T05:22:53.071Z,67.34
2022-10-03T05:25:19.137Z,67.21
2022-10-03T05:27:45.063Z,67.32
2022-10-03T05:30:11.331Z,67.45
2022-10-03T05:32:37.541Z,67.29
2022-10-03T05:35:03.739Z,67.48
2022-10-03T05:37:29.958Z,67.43
2022-10-03T05:39:56.191Z,67.18
2022-10-03T05:42:23.684Z,67.23
2022-10-03T05:44:50.149Z,67.32
2022-10-03T05:47:17.286Z,66.85
2022-10-03T05:49:43.423Z,67.16
2022-10-03T07:55:47.354Z,65.54
2022-10-03T07:58:13.276Z,66.02
2022-10-03T08:00:40.839Z,67.21
2022-10-03T08:03:07.843Z,67.39
2022-10-03T08:05:33.822Z,65.65
2022-10-03T08:08:00.505Z,65.73
2022-10-03T08:10:26.434Z,65.50
2022-10-03T08:12:53.114Z,65.56
2022-10-03T08:15:19.018Z,65.62
2022-10-03T08:17:44.937Z,65.46
2022-10-03T08:20:10.832Z,65.03
2022-10-03T08:22:36.751Z,64.68
2022-10-03T08:25:03.285Z,63.75
2022-10-03T08:27:29.290Z,64.21
2022-10-03T08:29:55.232Z,64.24
2022-10-03T08:32:21.138Z,64.47
2022-10-03T08:34:47.066Z,64.68
2022-10-03T08:37:12.965Z,64.67
2022-10-03T08:39:38.877Z,64.59
2022-10-03T08:42:04.764Z,64.24
2022-10-03T08:44:31.432Z,64.77
2022-10-03T08:46:57.403Z,65.44
2022-10-03T08:49:24.152Z,64.57
2022-10-03T08:51:50.080Z,63.87
2022-10-03T08:54:16.709Z,63.40
2022-10-03T08:56:42.736Z,63.16
2022-10-03T08:59:08.709Z,61.84
2022-10-03T09:01:34.649Z,61.56
2022-10-03T09:04:01.465Z,61.77
2022-10-03T09:06:27.441Z,60.96
2022-10-03T09:08:53.366Z,61.37
2022-10-03T09:11:19.300Z,60.89
2022-10-03T09:13:45.991Z,59.48
2022-10-03T09:16:16.134Z,60.17
2022-10-03T09:18:44.246Z,59.81
2022-10-03T09:21:10.165Z,58.12
2022-10-03T09:23:36.130Z,57.44
2022-10-03T09:26:02.198Z,58.38
2022-10-03T09:28:28.217Z,57.20
2022-10-03T09:30:54.291Z,57.20
2022-10-03T09:33:21.057Z,55.32
2022-10-03T09:35:47.027Z,56.46
2022-10-03T09:38:12.950Z,53.70
2022-10-03T09:40:38.900Z,52.51
2022-10-03T09:43:04.862Z,48.30
2022-10-03T09:45:30.768Z,50.71
2022-10-03T09:47:56.723Z,50.28
2022-10-03T09:50:23.407Z,50.70
2022-10-03T09:52:49.374Z,49.32
2022-10-03T09:55:15.302Z,48.57
2022-10-03T09:57:41.199Z,46.29
2022-10-03T10:00:07.147Z,48.23
2022-10-03T10:02:33.077Z,48.34
2022-10-03T10:04:59.065Z,47.50
2022-10-03T10:07:25.178Z,45.80
2022-10-03T10:09:51.104Z,47.59
2022-10-03T10:12:17.826Z,45.41
2022-10-03T10:14:43.760Z,39.49
2022-10-03T10:17:09.671Z,41.74
2022-10-03T10:19:35.615Z,41.18
2022-10-03T10:22:01.542Z,41.90
2022-10-03T10:24:28.163Z,41.14
2022-10-03T10:26:54.089Z,38.01
2022-10-03T10:29:20.011Z,41.68
2022-10-03T10:31:46.013Z,39.57
2022-10-03T10:34:12.946Z,40.39
2022-10-03T12:54:09.949Z,34.68
2022-10-03T12:56:35.898Z,34.66
2022-10-03T12:59:01.830Z,34.39
2022-10-03T13:01:27.853Z,33.99
2022-10-03T13:03:54.810Z,35.49
2022-10-03T13:06:20.709Z,34.78
2022-10-03T13:08:46.631Z,34.33
2022-10-03T13:11:13.264Z,35.18
2022-10-03T13:13:39.217Z,34.50
2022-10-03T13:16:06.125Z,33.78
2022-10-03T13:18:32.117Z,33.80
2022-10-03T13:20:58.050Z,33.00
2022-10-03T13:23:24.661Z,33.73
2022-10-03T13:25:50.585Z,34.16
2022-10-03T13:28:16.548Z,34.96
2022-10-03T13:30:42.540Z,33.42
2022-10-03T13:33:09.223Z,34.88
2022-10-03T13:35:35.193Z,34.17
2022-10-03T13:38:01.136Z,33.64
2022-10-03T13:40:27.057Z,35.06
2022-10-03T13:42:53.054Z,34.00
2022-10-03T13:45:19.791Z,33.64
2022-10-03T13:47:45.755Z,32.93
2022-10-03T13:50:11.672Z,34.10
2022-10-03T13:52:37.612Z,34.26
2022-10-03T13:55:03.523Z,34.34
2022-10-03T13:57:30.374Z,34.98
2022-10-03T13:59:56.599Z,35.54
2022-10-03T14:02:22.971Z,35.45
2022-10-03T14:04:49.812Z,34.56
2022-10-03T14:07:15.767Z,35.68
2022-10-03T14:09:42.004Z,35.00
2022-10-03T14:12:08.591Z,35.58
2022-10-03T14:14:34.555Z,33.63
2022-10-03T14:17:00.512Z,33.74
2022-10-03T14:19:26.441Z,33.35
2022-10-03T14:21:52.368Z,33.22
2022-10-03T14:24:18.284Z,32.99
2022-10-03T14:26:45.080Z,32.79
2022-10-03T14:29:10.990Z,33.25
2022-10-03T14:31:37.832Z,34.32
2022-10-03T14:34:04.221Z,34.35
2022-10-03T14:36:30.133Z,33.25
2022-10-03T14:38:56.051Z,34.00
2022-10-03T14:41:22.017Z,33.79
2022-10-03T14:43:47.994Z,33.55
2022-10-03T14:46:13.984Z,33.39
2022-10-03T14:48:40.862Z,32.63
2022-10-03T14:51:07.548Z,33.23
2022-10-03T14:53:33.494Z,32.77
2022-10-03T14:55:59.451Z,32.11
2022-10-03T14:58:26.263Z,33.04
2022-10-03T15:00:52.165Z,33.21
2022-10-03T15:03:18.184Z,34.39
2022-10-03T15:05:44.979Z,34.52
2022-10-03T15:08:10.930Z,34.87
2022-10-03T15:10:37.714Z,34.25
2022-10-03T15:13:06.164Z,34.35
2022-10-03T15:15:32.923Z,34.67
2022-10-03T15:17:58.827Z,34.04
2022-10-03T15:20:24.783Z,34.67
2022-10-03T15:22:50.678Z,34.46
2022-10-03T15:25:16.574Z,33.16
2022-10-03T15:27:43.462Z,33.17
2022-10-03T15:30:09.415Z,33.69
2022-10-03T15:32:36.738Z,34.19
2022-10-03T15:35:03.018Z,32.47
2022-10-03T15:37:29.286Z,34.68
2022-10-03T15:39:56.928Z,36.14
2022-10-03T17:51:23.305Z,50.73
2022-10-03T17:53:50.923Z,50.69
2022-10-03T17:56:19.223Z,50.86
2022-10-03T17:58:45.158Z,51.55
2022-10-03T18:01:11.167Z,51.30
2022-10-03T18:03:37.239Z,51.25
2022-10-03T18:06:03.139Z,51.50
2022-10-03T18:08:29.067Z,51.79
2022-10-03T18:10:55.008Z,52.17
2022-10-03T18:13:21.893Z,52.62
2022-10-03T18:15:47.949Z,52.35
2022-10-03T18:18:13.923Z,53.37
2022-10-03T18:20:40.005Z,53.02
2022-10-03T18:23:08.190Z,53.01
2022-10-03T18:25:34.104Z,54.13
2022-10-03T18:28:04.825Z,54.49
2022-10-03T18:30:32.302Z,53.76
2022-10-03T18:32:59.002Z,54.08
2022-10-03T18:35:24.910Z,54.02
2022-10-03T18:37:50.847Z,54.12
2022-10-03T18:40:17.401Z,53.77
2022-10-03T18:42:43.317Z,54.28
2022-10-03T18:45:09.319Z,53.74
2022-10-03T18:47:35.977Z,53.47
2022-10-03T18:50:01.940Z,53.56
2022-10-03T18:52:27.878Z,53.72
2022-10-03T18:54:53.832Z,53.91
2022-10-03T18:57:19.738Z,53.63
2022-10-03T18:59:46.979Z,54.04
2022-10-03T19:02:14.180Z,53.69
2022-10-03T19:04:40.205Z,54.08
2022-10-03T19:07:06.127Z,54.10
2022-10-03T19:09:32.051Z,54.11
2022-10-03T19:11:58.271Z,54.63
2022-10-03T19:14:24.631Z,54.85
2022-10-03T19:16:50.814Z,54.70
2022-10-03T19:19:16.787Z,55.15
2022-10-03T19:21:42.769Z,55.51
2022-10-03T19:24:08.704Z,55.38
2022-10-03T19:26:36.050Z,55.49
2022-10-03T19:29:02.890Z,54.56
2022-10-03T19:31:28.927Z,54.39
2022-10-03T19:33:54.929Z,54.70
2022-10-03T19:36:20.884Z,54.80
2022-10-03T19:38:46.930Z,55.70
2022-10-03T19:41:12.897Z,55.81
2022-10-03T19:43:38.800Z,55.84
2022-10-03T19:46:05.829Z,55.20
2022-10-03T19:48:31.802Z,55.14
2022-10-03T19:50:58.438Z,54.48
2022-10-03T19:53:24.376Z,55.12
2022-10-03T19:55:50.300Z,54.80
2022-10-03T19:58:16.273Z,54.42
2022-10-03T20:00:42.331Z,55.00
2022-10-03T20:03:09.115Z,55.13
2022-10-03T20:05:35.021Z,53.76
2022-10-03T20:08:00.984Z,54.15
2022-10-03T20:10:27.871Z,54.40
2022-10-03T20:12:54.662Z,54.59
2022-10-03T20:15:20.573Z,55.41
2022-10-03T20:17:46.514Z,55.26
2022-10-03T20:20:12.432Z,55.98
2022-10-03T20:22:39.304Z,55.65
2022-10-03T20:25:05.930Z,55.78
2022-10-03T20:27:31.842Z,56.61
2022-10-03T20:29:58.058Z,56.63
2022-10-03T20:32:24.336Z,56.64
2022-10-03T20:34:50.657Z,56.98
2022-10-03T20:37:17.242Z,56.37
2022-10-03T20:39:43.614Z,56.02
2022-10-03T22:46:37.744Z,60.62
2022-10-03T22:49:03.722Z,60.59
2022-10-03T22:51:30.318Z,60.24
2022-10-03T22:53:56.233Z,60.66
2022-10-03T22:56:22.838Z,60.02
2022-10-03T22:58:48.759Z,59.82
2022-10-03T23:01:15.360Z,59.25
2022-10-03T23:03:41.359Z,59.36
2022-10-03T23:06:07.321Z,59.32
2022-10-03T23:08:33.960Z,60.00
2022-10-03T23:10:59.872Z,60.73
2022-10-03T23:13:26.536Z,60.54
2022-10-03T23:15:53.455Z,60.25
2022-10-03T23:18:19.424Z,59.98
2022-10-03T23:20:45.362Z,60.33
2022-10-03T23:23:12.064Z,60.10
2022-10-03T23:25:38.047Z,60.27
2022-10-03T23:28:04.037Z,60.70
2022-10-03T23:30:30.039Z,60.85
2022-10-03T23:32:56.916Z,59.98
2022-10-03T23:35:22.840Z,59.81
2022-10-03T23:37:48.818Z,60.86
2022-10-03T23:40:15.486Z,60.92
2022-10-03T23:42:41.477Z,61.03
2022-10-03T23:45:07.379Z,60.68
2022-10-03T23:47:33.317Z,60.93
2022-10-03T23:49:59.237Z,60.82
2022-10-03T23:52:25.635Z,60.91
2022-10-03T23:54:52.399Z,61.34
2022-10-03T23:57:18.316Z,61.77
2022-10-03T23:59:44.830Z,61.87
